Time;durP1;ratioP1;P1;durP2;ratioP2;P2;SDS_P1;SDS_P2;PMS_P1;PMS_P2;Temp;Humidity;BMP_temperature;BMP_pressure;BME280_temperature;BME280_humidity;BME280_pressure;Samples;Min_cycle;Max_cycle;Signal;HPM_P1;HPM_P2
2022/10/26 00:02:14;;;;;;;7.80;4.38;;;;;;;12.30;84.75;101307.09;6185811;23;20001;-80
2022/10/26 00:04:40;;;;;;;8.45;4.13;;;;;;;12.26;84.80;101299.09;6185660;23;20033;-80
2022/10/26 00:07:05;;;;;;;8.50;4.60;;;;;;;12.28;84.74;101300.00;6185960;23;20478;-80
2022/10/26 00:09:31;;;;;;;8.25;4.18;;;;;;;12.34;85.13;101301.84;6185576;23;20012;-80
2022/10/26 00:11:56;;;;;;;9.45;4.40;;;;;;;12.31;84.97;101290.31;6160221;23;20013;-80
2022/10/26 00:14:22;;;;;;;8.57;4.30;;;;;;;12.35;85.01;101298.31;6188357;23;20040;-80
2022/10/26 00:16:47;;;;;;;10.10;3.97;;;;;;;12.37;84.79;101291.25;6187754;23;20008;-81
2022/10/26 00:19:13;;;;;;;8.60;4.35;;;;;;;12.39;84.50;101281.56;6187366;23;20313;-80
2022/10/26 00:21:38;;;;;;;10.00;4.15;;;;;;;12.42;84.52;101286.00;6186297;23;20093;-80
2022/10/26 00:24:04;;;;;;;7.03;4.50;;;;;;;12.42;84.66;101275.38;6187612;23;20005;-80
2022/10/26 00:26:29;;;;;;;11.55;4.55;;;;;;;12.42;84.44;101265.72;6188015;23;20409;-80
2022/10/26 00:28:56;;;;;;;7.32;3.72;;;;;;;12.46;85.07;101269.25;6161674;23;20020;-80
2022/10/26 00:31:22;;;;;;;8.52;4.60;;;;;;;12.43;84.59;101272.78;6187625;23;20016;-80
2022/10/26 00:33:51;;;;;;;10.18;4.55;;;;;;;12.49;84.66;101271.94;6187403;23;20009;-80
2022/10/26 00:36:17;;;;;;;8.48;4.28;;;;;;;12.46;84.69;101267.50;6188169;23;20012;-80
2022/10/26 00:38:47;;;;;;;9.02;4.72;;;;;;;12.47;84.89;101257.81;6187916;23;20017;-80
2022/10/26 00:41:39;;;;;;;11.18;4.85;;;;;;;12.46;84.92;101246.31;6188338;23;20016;-80
2022/10/26 00:44:41;;;;;;;11.93;4.82;;;;;;;12.47;85.02;101242.78;6184920;23;20031;-80
2022/10/26 00:47:15;;;;;;;8.52;4.57;;;;;;;12.45;85.34;101238.31;6189289;23;20001;-80
2022/10/26 00:49:45;;;;;;;10.13;5.10;;;;;;;12.42;85.29;101249.81;6191460;23;20063;-80
2022/10/26 00:52:11;;;;;;;12.35;4.90;;;;;;;12.38;85.46;101255.06;6165129;23;20402;-80
2022/10/26 00:54:37;;;;;;;11.60;5.10;;;;;;;12.37;86.02;101275.34;6189688;23;20005;-80
2022/10/26 00:57:02;;;;;;;14.65;4.72;;;;;;;12.34;86.29;101266.50;6190777;23;20376;-80
2022/10/26 00:59:28;;;;;;;8.15;4.90;;;;;;;12.37;86.04;101266.50;6190156;23;20067;-80
2022/10/26 01:01:53;;;;;;;9.20;5.10;;;;;;;12.40;86.17;101263.91;6187919;23;20375;-81
2022/10/26 01:04:19;;;;;;;9.05;4.80;;;;;;;12.40;86.12;101258.59;6162099;23;20013;-80
2022/10/26 01:06:45;;;;;;;11.10;4.88;;;;;;;12.44;86.19;101255.13;6188424;23;20428;-80
2022/10/26 01:09:11;;;;;;;9.00;5.35;;;;;;;12.46;86.28;101254.25;6187611;23;20011;-80
2022/10/26 01:11:37;;;;;;;12.07;5.00;;;;;;;12.48;86.35;101254.28;6187891;23;20013;-80
2022/10/26 01:14:06;;;;;;;9.65;5.38;;;;;;;12.47;86.11;101250.72;6161997;23;20474;-80
2022/10/26 01:16:43;;;;;;;9.57;4.88;;;;;;;12.51;86.19;101246.34;6187341;23;20051;-80
2022/10/26 01:19:30;;;;;;;12.07;5.45;;;;;;;12.51;86.18;101233.97;6187521;23;20032;-80
2022/10/26 01:22:12;;;;;;;10.27;5.30;;;;;;;12.48;86.18;101238.38;6186793;23;20087;-81
2022/10/26 01:24:53;;;;;;;11.35;5.30;;;;;;;12.53;86.39;101237.53;6187540;23;20312;-80
2022/10/26 01:27:22;;;;;;;10.27;5.47;;;;;;;12.49;86.06;101243.66;6187986;23;20008;-80
2022/10/26 01:30:25;;;;;;;9.70;5.38;;;;;;;12.51;86.28;101244.59;6186871;23;20009;-80
2022/10/26 01:33:09;;;;;;;8.32;4.72;;;;;;;12.52;86.51;101234.88;6186768;23;20419;-79
2022/10/26 01:35:45;;;;;;;12.60;5.47;;;;;;;12.48;86.82;101231.28;6186827;23;20036;-80
2022/10/26 01:38:23;;;;;;;15.50;5.40;;;;;;;12.50;86.41;101226.91;6187062;23;20053;-81
2022/10/26 01:41:36;;;;;;;11.98;5.15;;;;;;;12.53;86.57;101229.56;6187070;23;20005;-80
2022/10/26 01:44:06;;;;;;;12.90;5.20;;;;;;;12.50;86.67;101218.97;6146748;23;20321;-80
2022/10/26 01:46:42;;;;;;;7.13;4.63;;;;;;;12.52;86.57;101218.97;6186750;23;20023;-80
2022/10/26 01:49:14;;;;;;;9.82;4.93;;;;;;;12.50;87.05;101216.31;6187291;23;20320;-80
2022/10/26 01:51:42;;;;;;;10.45;5.18;;;;;;;12.51;86.84;101218.06;6187018;23;20001;-80
2022/10/26 01:54:08;;;;;;;10.63;4.80;;;;;;;12.47;86.43;101203.03;6186855;23;20012;-80
2022/10/26 01:56:39;;;;;;;9.25;4.97;;;;;;;12.46;86.96;101214.50;6186554;23;20005;-80
2022/10/26 01:59:38;;;;;;;10.43;5.05;;;;;;;12.45;87.08;101215.34;6187334;23;20009;-81
2022/10/26 02:02:31;;;;;;;8.30;4.55;;;;;;;12.45;87.15;101206.53;6186447;23;20035;-80
2022/10/26 02:05:03;;;;;;;9.98;4.60;;;;;;;12.44;87.01;101204.75;6186903;23;20012;-80
2022/10/26 02:07:36;;;;;;;9.73;4.60;;;;;;;12.43;86.92;101202.97;6186873;23;20431;-83
2022/10/26 02:10:01;;;;;;;9.45;4.90;;;;;;;12.43;87.33;101203.88;6186522;23;20027;-81
2022/10/26 02:12:33;;;;;;;8.43;5.07;;;;;;;12.41;87.40;101199.41;6186760;23;20479;-80
2022/10/26 02:15:24;;;;;;;10.73;4.67;;;;;;;12.46;87.11;101203.00;6161238;23;20009;-80
2022/10/26 02:17:57;;;;;;;9.63;4.70;;;;;;;12.48;87.17;101198.59;6174734;23;20072;-80
2022/10/26 02:20:27;;;;;;;8.27;4.47;;;;;;;12.48;86.97;101190.66;6187478;23;20001;-80
2022/10/26 02:22:55;;;;;;;13.75;4.80;;;;;;;12.46;86.87;101189.72;6184950;23;20005;-80
2022/10/26 02:25:27;;;;;;;10.77;4.50;;;;;;;12.45;86.76;101194.16;6186333;23;20013;-81
2022/10/26 02:27:56;;;;;;;10.88;4.72;;;;;;;12.46;87.11;101185.34;6160404;23;20054;-80
2022/10/26 02:30:22;;;;;;;10.80;4.53;;;;;;;12.45;86.69;101191.50;6186730;23;20331;-80
2022/10/26 02:32:52;;;;;;;13.68;4.55;;;;;;;12.43;86.89;101195.03;6186075;23;20028;-81
2022/10/26 02:35:22;;;;;;;8.98;4.60;;;;;;;12.42;86.60;101188.84;6159751;23;20023;-80
2022/10/26 02:37:49;;;;;;;7.18;4.40;;;;;;;12.38;86.74;101181.75;6186392;23;20332;-81
2022/10/26 02:40:21;;;;;;;11.63;4.47;;;;;;;12.36;86.95;101178.19;6207262;23;20440;-80
2022/10/26 02:42:47;;;;;;;10.55;4.00;;;;;;;12.34;86.83;101179.94;6186127;23;20076;-81
2022/10/26 02:45:18;;;;;;;11.43;4.30;;;;;;;12.34;87.48;101182.59;6185044;23;20009;-80
2022/10/26 02:47:43;;;;;;;9.68;4.10;;;;;;;12.34;87.32;101173.75;6186418;23;20001;-81
2022/10/26 02:50:09;;;;;;;9.63;3.78;;;;;;;12.34;87.60;101171.09;6186435;23;20020;-81
2022/10/26 02:52:43;;;;;;;9.70;3.40;;;;;;;12.32;87.64;101176.38;6186063;23;20009;-81
2022/10/26 02:55:24;;;;;;;7.88;3.65;;;;;;;12.29;87.59;101171.06;6186663;23;20013;-81
2022/10/26 02:57:59;;;;;;;9.90;3.47;;;;;;;12.28;87.69;101174.56;6187022;23;20040;-80
2022/10/26 03:00:24;;;;;;;7.90;3.75;;;;;;;12.26;87.84;101171.03;6186382;23;20476;-80
2022/10/26 03:02:56;;;;;;;9.30;3.75;;;;;;;12.26;87.76;101169.25;6186244;23;20037;-80
2022/10/26 03:05:31;;;;;;;6.82;3.72;;;;;;;12.26;87.65;101169.25;6185838;23;20032;-80
2022/10/26 03:07:57;;;;;;;7.57;3.42;;;;;;;12.23;87.77;101173.66;6187153;23;20005;-80
2022/10/26 03:10:23;;;;;;;7.20;3.33;;;;;;;12.25;88.54;101171.91;6185860;23;20428;-80
2022/10/26 03:12:49;;;;;;;8.15;3.85;;;;;;;12.24;87.69;101162.16;6185828;23;20016;-81
2022/10/26 03:15:14;;;;;;;10.07;3.75;;;;;;;12.28;87.98;101166.63;6160484;23;20036;-81
2022/10/26 03:17:40;;;;;;;11.15;3.60;;;;;;;12.24;88.03;101159.50;6186221;23;20015;-81
2022/10/26 03:20:07;;;;;;;10.40;3.65;;;;;;;12.24;88.35;101160.41;6186222;23;20420;-81
2022/10/26 03:22:32;;;;;;;9.77;3.88;;;;;;;12.24;88.36;101163.03;6186413;23;20440;-80
2022/10/26 03:24:57;;;;;;;9.07;3.60;;;;;;;12.22;88.15;101162.16;6185622;23;20009;-80
2022/10/26 03:27:23;;;;;;;10.02;3.70;;;;;;;12.23;88.45;101163.03;6186063;23;20370;-81
2022/10/26 03:29:48;;;;;;;6.72;3.50;;;;;;;12.21;88.61;101165.69;6186134;23;20009;-80
2022/10/26 03:32:13;;;;;;;9.00;3.13;;;;;;;12.21;88.39;101170.09;6186153;23;20020;-80
2022/10/26 03:34:39;;;;;;;7.68;3.35;;;;;;;12.24;88.68;101162.16;6185908;23;20080;-80
2022/10/26 03:37:04;;;;;;;9.15;3.20;;;;;;;12.21;88.10;101156.88;6185875;23;20372;-80
2022/10/26 03:39:30;;;;;;;12.80;3.50;;;;;;;12.25;88.24;101161.31;6186574;23;20044;-80
2022/10/26 03:41:55;;;;;;;8.27;3.20;;;;;;;12.30;88.63;101161.34;6185904;23;20454;-80
2022/10/26 03:44:21;;;;;;;13.88;3.60;;;;;;;12.27;88.33;101152.47;6185793;23;20059;-80
2022/10/26 03:46:47;;;;;;;6.80;3.45;;;;;;;12.29;88.70;101157.81;6187660;23;20533;-81
2022/10/26 03:49:12;;;;;;;9.50;3.47;;;;;;;12.29;88.70;101157.81;6186507;23;20017;-81
2022/10/26 03:51:37;;;;;;;7.47;3.40;;;;;;;12.27;88.40;101144.53;6187941;23;20021;-81
2022/10/26 03:54:04;;;;;;;10.25;3.50;;;;;;;12.33;88.32;101154.28;6161642;23;20428;-80
2022/10/26 03:56:29;;;;;;;7.47;3.53;;;;;;;12.36;88.26;101150.78;6188112;23;20005;-80
2022/10/26 03:58:54;;;;;;;7.85;3.33;;;;;;;12.34;88.31;101156.09;6188118;23;20088;-80
2022/10/26 04:01:20;;;;;;;8.15;3.47;;;;;;;12.32;88.42;101149.00;6187770;23;20031;-80
2022/10/26 04:03:45;;;;;;;9.40;3.20;;;;;;;12.30;88.87;101148.09;6136785;23;20020;-80
2022/10/26 04:06:11;;;;;;;8.65;3.30;;;;;;;12.29;88.65;101149.88;6187811;23;20010;-81
2022/10/26 04:08:36;;;;;;;7.60;3.40;;;;;;;12.25;88.72;101145.41;6188128;23;20009;-80
2022/10/26 04:11:01;;;;;;;10.30;3.28;;;;;;;12.24;88.81;101148.91;6161497;23;20009;-80
2022/10/26 04:13:27;;;;;;;6.32;3.00;;;;;;;12.19;89.00;101146.22;6187452;23;20047;-80
2022/10/26 04:15:52;;;;;;;6.63;3.25;;;;;;;12.25;89.05;101150.72;6187937;23;20040;-80
2022/10/26 04:18:17;;;;;;;9.20;3.30;;;;;;;12.25;89.05;101153.38;6188347;23;20009;-80
2022/10/26 04:20:43;;;;;;;7.63;3.13;;;;;;;12.30;89.18;101158.69;6187740;23;20009;-81
2022/10/26 04:23:14;;;;;;;8.02;3.28;;;;;;;12.31;89.00;101155.16;6161289;23;20415;-80
2022/10/26 04:25:40;;;;;;;8.77;3.20;;;;;;;12.31;88.98;101150.75;6161228;23;20005;-80
2022/10/26 04:28:07;;;;;;;9.25;3.30;;;;;;;12.33;88.81;101154.28;6161641;23;20016;-80
2022/10/26 04:30:33;;;;;;;8.50;3.05;;;;;;;12.32;89.13;101146.34;6188104;23;20036;-80
2022/10/26 04:32:59;;;;;;;7.30;3.15;;;;;;;12.34;89.18;101144.59;6187349;23;20067;-80
2022/10/26 04:35:24;;;;;;;7.78;3.15;;;;;;;12.34;88.95;101144.59;6187110;23;20012;-80
2022/10/26 04:37:50;;;;;;;7.60;3.10;;;;;;;12.36;89.16;101145.50;6187154;23;20012;-79
2022/10/26 04:40:15;;;;;;;9.70;3.15;;;;;;;12.37;89.21;101145.50;6187847;23;20362;-81
2022/10/26 04:42:43;;;;;;;8.57;3.20;;;;;;;12.39;89.20;101149.06;6187684;23;20017;-80
2022/10/26 04:45:09;;;;;;;7.03;3.03;;;;;;;12.41;89.27;101141.09;6187123;23;20013;-80
2022/10/26 04:47:35;;;;;;;9.57;3.22;;;;;;;12.41;89.26;101136.69;6162361;23;20363;-80
2022/10/26 04:50:00;;;;;;;5.40;2.70;;;;;;;12.42;88.96;101141.16;6186851;23;20013;-80
2022/10/26 04:52:25;;;;;;;8.07;3.30;;;;;;;12.42;89.17;101135.84;6187779;23;20115;-80
2022/10/26 04:54:51;;;;;;;8.73;3.42;;;;;;;12.48;89.17;101138.53;6188059;23;20414;-80
2022/10/26 04:57:16;;;;;;;8.23;3.10;;;;;;;12.46;89.22;101136.72;6160437;23;20009;-80
2022/10/26 04:59:41;;;;;;;11.05;3.15;;;;;;;12.43;89.50;101148.22;6187624;23;20009;-79
2022/10/26 05:02:07;;;;;;;12.27;3.35;;;;;;;12.44;89.47;101146.44;6185724;23;20009;-80
2022/10/26 05:04:32;;;;;;;9.73;3.95;;;;;;;12.42;89.64;101153.47;6187687;23;20416;-80
2022/10/26 05:06:57;;;;;;;5.35;3.20;;;;;;;12.39;89.78;101141.09;6161443;23;20036;-80
2022/10/26 05:09:23;;;;;;;7.68;3.33;;;;;;;12.44;89.51;101149.09;6187466;23;20309;-80
2022/10/26 05:11:48;;;;;;;6.78;3.08;;;;;;;12.49;89.63;101160.63;6187406;23;20013;-80
2022/10/26 05:14:13;;;;;;;9.98;3.47;;;;;;;12.50;89.78;101155.34;6161419;23;20063;-80
2022/10/26 05:16:39;;;;;;;12.60;3.63;;;;;;;12.52;89.62;101152.69;6186950;23;20016;-79
2022/10/26 05:19:04;;;;;;;5.47;3.17;;;;;;;12.55;89.59;101152.72;6187604;23;20035;-80
2022/10/26 05:21:30;;;;;;;8.75;3.53;;;;;;;12.56;89.76;101153.63;6136375;23;20005;-80
2022/10/26 05:23:55;;;;;;;8.90;3.50;;;;;;;12.59;89.76;101153.59;6187924;23;20376;-80
2022/10/26 05:26:22;;;;;;;7.93;3.40;;;;;;;12.61;89.78;101155.41;6187358;23;20009;-80
2022/10/26 05:28:48;;;;;;;8.82;3.72;;;;;;;12.62;89.53;101151.88;6186932;23;20082;-81
2022/10/26 05:31:13;;;;;;;6.80;3.42;;;;;;;12.59;89.46;101149.22;6186836;23;20033;-80
2022/10/26 05:33:38;;;;;;;8.80;3.40;;;;;;;12.63;89.74;101163.38;6187255;23;20016;-79
2022/10/26 05:36:04;;;;;;;8.73;3.58;;;;;;;12.62;89.75;101164.25;6187290;23;20487;-79
2022/10/26 05:38:30;;;;;;;9.68;3.13;;;;;;;12.60;90.09;101158.94;6161624;23;20012;-80
2022/10/26 05:40:55;;;;;;;9.18;3.60;;;;;;;12.59;90.02;101154.53;6187614;23;20033;-80
2022/10/26 05:43:23;;;;;;;11.90;3.70;;;;;;;12.64;89.67;101154.56;6187333;23;20431;-80
2022/10/26 05:45:49;;;;;;;7.28;3.78;;;;;;;12.65;89.90;101159.84;6187171;23;20006;-79
2022/10/26 05:48:15;;;;;;;7.68;3.58;;;;;;;12.66;89.90;101161.63;6186530;23;20009;-79
2022/10/26 05:50:40;;;;;;;11.82;3.60;;;;;;;12.66;89.77;101158.97;6186926;23;20009;-79
2022/10/26 05:53:06;;;;;;;8.90;3.70;;;;;;;12.68;89.86;101159.88;6186292;23;20013;-80
2022/10/26 05:55:31;;;;;;;10.98;3.80;;;;;;;12.69;89.96;101158.13;6187614;23;20016;-79
2022/10/26 05:57:57;;;;;;;9.90;3.60;;;;;;;12.71;89.77;101164.31;6186826;23;20001;-79
2022/10/26 06:00:25;;;;;;;7.95;3.58;;;;;;;12.69;89.74;101166.97;6187180;23;20490;-80
2022/10/26 06:03:08;;;;;;;8.07;3.70;;;;;;;12.70;89.88;101167.84;6186810;23;20427;-81
2022/10/26 06:05:49;;;;;;;6.78;3.35;;;;;;;12.70;89.83;101178.44;6187682;23;20005;-79
2022/10/26 06:08:14;;;;;;;13.02;3.72;;;;;;;12.68;89.85;101178.44;6187676;23;20055;-79
2022/10/26 06:10:40;;;;;;;7.28;3.42;;;;;;;12.70;89.82;101174.03;6187625;23;20076;-79
2022/10/26 06:13:06;;;;;;;10.52;3.80;;;;;;;12.72;89.92;101184.66;6188024;23;20009;-79
2022/10/26 06:15:39;;;;;;;8.85;3.50;;;;;;;12.73;90.02;101183.78;6200837;23;19996;-78
2022/10/26 06:18:24;;;;;;;8.02;3.58;;;;;;;12.76;89.67;101189.09;6203282;23;20005;-78
2022/10/26 06:20:49;;;;;;;5.97;3.35;;;;;;;12.76;89.85;101191.75;6198100;23;20012;-78
2022/10/26 06:24:14;;;;;;;7.78;3.40;;;;;;;12.79;89.70;101192.66;6197324;23;20008;-78
2022/10/26 06:27:15;;;;;;;10.55;3.70;;;;;;;12.78;89.45;101187.34;6071522;23;20026;-78
2022/10/26 06:29:48;;;;;;;8.73;3.42;;;;;;;12.76;89.58;101190.00;6199569;23;20001;-78
2022/10/26 06:32:14;;;;;;;8.68;3.90;;;;;;;12.79;89.77;101191.78;6198820;23;20045;-80
2022/10/26 06:34:45;;;;;;;5.55;3.50;;;;;;;12.76;89.72;101191.75;6196597;23;20056;-79
2022/10/26 06:37:11;;;;;;;9.98;3.58;;;;;;;12.75;89.60;101187.31;6203295;23;20001;-80
2022/10/26 06:39:43;;;;;;;11.23;3.95;;;;;;;12.73;89.77;101183.78;6205120;23;20013;-79
2022/10/26 06:42:10;;;;;;;7.90;3.50;;;;;;;12.75;89.57;101195.28;6203256;23;20075;-80
2022/10/26 06:44:36;;;;;;;10.23;5.45;;;;;;;12.70;89.62;101187.28;6209159;23;20008;-80
2022/10/26 06:47:25;;;;;;;15.18;7.10;;;;;;;12.72;89.86;101182.03;6210889;23;20005;-79
2022/10/26 06:50:11;;;;;;;13.05;4.10;;;;;;;12.73;89.70;101178.47;6207881;23;20004;-79
2022/10/26 06:52:43;;;;;;;10.90;3.92;;;;;;;12.73;89.82;101181.13;6203330;23;20013;-81
2022/10/26 06:55:14;;;;;;;9.10;3.80;;;;;;;12.72;89.91;101174.06;6194076;23;20001;-81
2022/10/26 06:57:42;;;;;;;8.80;3.78;;;;;;;12.71;89.93;101177.56;6192825;23;20009;-81
2022/10/26 07:00:14;;;;;;;9.35;4.10;;;;;;;12.71;90.15;101173.16;6187671;23;20012;-81
2022/10/26 07:02:39;;;;;;;10.15;3.80;;;;;;;12.72;89.89;101171.41;6188113;23;20061;-80
2022/10/26 07:05:09;;;;;;;9.52;3.72;;;;;;;12.75;89.99;101184.66;6161357;23;20013;-80
2022/10/26 07:07:45;;;;;;;7.70;3.92;;;;;;;12.76;90.01;101173.19;6162009;23;20016;-80
2022/10/26 07:10:12;;;;;;;7.63;3.70;;;;;;;12.75;89.98;101169.66;6187206;23;20051;-80
2022/10/26 07:12:37;;;;;;;8.48;3.28;;;;;;;12.81;89.70;101178.53;6187006;23;20013;-81
2022/10/26 07:15:03;;;;;;;6.15;3.80;;;;;;;12.82;89.83;101189.16;6187803;23;20013;-80
2022/10/26 07:17:29;;;;;;;9.07;3.22;;;;;;;12.87;89.80;101199.78;6186956;23;20117;-81
2022/10/26 07:19:55;;;;;;;7.07;3.53;;;;;;;12.90;89.68;101199.81;6162653;23;20013;-80
2022/10/26 07:22:20;;;;;;;10.52;3.53;;;;;;;12.92;89.62;101201.59;6162483;23;20416;-80
2022/10/26 07:24:49;;;;;;;10.52;3.92;;;;;;;12.96;89.65;101206.03;6162389;23;20005;-80
2022/10/26 07:27:15;;;;;;;9.48;3.78;;;;;;;13.00;89.69;101199.00;6189651;23;20428;-80
2022/10/26 07:29:41;;;;;;;11.25;3.97;;;;;;;13.09;89.02;101211.44;6189882;23;20013;-80
2022/10/26 07:32:07;;;;;;;8.07;3.83;;;;;;;13.17;89.35;101218.56;6188684;23;20051;-80
2022/10/26 07:34:32;;;;;;;7.07;3.45;;;;;;;13.26;89.12;101223.94;6188078;23;20055;-80
2022/10/26 07:36:59;;;;;;;10.63;3.97;;;;;;;13.38;88.96;101231.09;6188069;23;20017;-80
2022/10/26 07:39:25;;;;;;;9.02;3.58;;;;;;;13.48;88.32;101222.28;6188720;23;20340;-79
2022/10/26 07:41:50;;;;;;;11.90;3.90;;;;;;;13.60;88.07;101229.44;6188993;23;20408;-81
2022/10/26 07:44:16;;;;;;;7.28;3.83;;;;;;;13.72;87.21;101224.19;6162011;23;20009;-80
2022/10/26 07:46:41;;;;;;;10.10;4.32;;;;;;;13.87;87.01;101220.69;6188463;23;20312;-80
2022/10/26 07:49:06;;;;;;;7.57;3.75;;;;;;;14.15;86.60;101226.97;6188166;23;20016;-80
2022/10/26 07:51:32;;;;;;;8.68;3.95;;;;;;;14.32;85.20;101228.78;6188499;23;20016;-80
2022/10/26 07:53:57;;;;;;;11.00;3.70;;;;;;;14.55;84.07;101239.47;6161956;23;20005;-79
2022/10/26 07:56:23;;;;;;;7.97;3.88;;;;;;;14.69;83.58;101262.53;6188337;23;20044;-80
2022/10/26 07:58:51;;;;;;;10.60;3.75;;;;;;;14.71;83.41;101267.84;6162078;23;20013;-80
2022/10/26 08:01:16;;;;;;;8.50;3.53;;;;;;;14.62;83.26;101262.53;6187954;23;20015;-80
2022/10/26 08:03:42;;;;;;;8.45;3.72;;;;;;;14.59;83.85;101258.06;6188388;23;20096;-80
2022/10/26 08:06:09;;;;;;;10.63;4.30;;;;;;;14.70;83.58;101258.97;6188374;23;20005;-80
2022/10/26 08:08:35;;;;;;;8.15;3.78;;;;;;;15.05;82.99;101255.41;6187881;23;20336;-80
2022/10/26 08:11:00;;;;;;;12.05;3.72;;;;;;;15.50;82.08;101270.44;6187675;23;20423;-81
2022/10/26 08:13:26;;;;;;;8.70;3.90;;;;;;;15.90;80.02;101256.09;6188298;23;20008;-80
2022/10/26 08:16:03;;;;;;;11.90;3.63;;;;;;;16.23;79.20;101263.03;6187913;23;20016;-80
2022/10/26 08:18:29;;;;;;;9.50;3.42;;;;;;;16.48;76.46;101269.97;6187984;23;20012;-80
2022/10/26 08:21:01;;;;;;;12.00;3.53;;;;;;;16.68;76.03;101263.63;6187861;23;20009;-80
2022/10/26 08:23:26;;;;;;;8.35;3.15;;;;;;;16.91;75.12;101264.34;6188109;23;20012;-80
2022/10/26 08:25:57;;;;;;;9.00;3.00;;;;;;;16.98;74.51;101267.84;6187944;23;20328;-80
2022/10/26 08:28:22;;;;;;;8.88;3.42;;;;;;;16.92;75.42;101259.91;6187774;23;20016;-80
2022/10/26 08:30:47;;;;;;;8.65;3.20;;;;;;;16.93;75.47;101269.69;6187620;23;20040;-80
2022/10/26 08:33:13;;;;;;;5.38;2.88;;;;;;;17.12;74.23;101273.94;6187681;23;20357;-80
2022/10/26 08:35:38;;;;;;;9.75;3.17;;;;;;;17.47;72.92;101270.03;6161543;23;20013;-80
2022/10/26 08:38:04;;;;;;;9.82;3.28;;;;;;;17.85;72.60;101260.72;6188026;23;20016;-79
2022/10/26 08:40:31;;;;;;;8.38;2.92;;;;;;;18.15;71.16;101287.06;6187925;23;20320;-80
2022/10/26 08:43:04;;;;;;;6.90;3.00;;;;;;;18.26;71.83;101282.44;6187472;23;20009;-80
2022/10/26 08:45:37;;;;;;;;;;;;;;;18.47;70.54;101293.75;6188609;23;20009;-80
2022/10/26 08:48:11;;;;;;;7.05;3.13;;;;;;;18.61;69.92;101270.34;6188143;23;20184;-80
2022/10/26 08:50:48;;;;;;;6.85;2.80;;;;;;;18.75;70.19;101283.53;6188251;23;20001;-83
2022/10/26 08:53:40;;;;;;;6.15;2.70;;;;;;;19.08;70.42;101276.75;6187563;23;20009;-81
2022/10/26 08:56:22;;;;;;;9.07;2.70;;;;;;;19.27;67.63;101275.50;6177600;23;20031;-81
2022/10/26 08:58:54;;;;;;;9.90;3.20;;;;;;;19.51;67.88;101265.22;6188535;23;20005;-81
2022/10/26 09:01:20;;;;;;;;;;;;;;;19.74;67.92;101264.78;6187887;23;20324;-81
2022/10/26 09:03:45;;;;;;;10.05;2.97;;;;;;;19.82;65.89;101262.84;6188018;23;19912;-81
2022/10/26 09:06:23;;;;;;;7.93;3.00;;;;;;;20.08;65.76;101246.19;6186438;23;20298;-82
2022/10/26 09:09:02;;;;;;;8.77;2.60;;;;;;;20.31;65.37;101247.47;6187296;23;20063;-81
2022/10/26 09:11:39;;;;;;;7.97;2.53;;;;;;;20.31;64.27;101256.41;6187327;23;20005;-81
2022/10/26 09:14:24;;;;;;;7.75;2.88;;;;;;;20.06;65.62;101272.19;6187239;23;20451;-80
2022/10/26 09:17:21;;;;;;;5.75;2.63;;;;;;;19.97;66.52;101280.41;6187082;23;20427;-81
2022/10/26 09:20:14;;;;;;;7.40;2.58;;;;;;;19.95;67.45;101287.59;6186908;23;20450;-81
2022/10/26 09:22:40;;;;;;;6.90;2.78;;;;;;;19.99;65.88;101292.00;6185597;23;20019;-83
2022/10/26 09:25:19;;;;;;;6.53;2.80;;;;;;;20.22;67.18;101295.06;6187123;23;20092;-81
2022/10/26 09:27:49;;;;;;;8.95;3.10;;;;;;;20.33;66.21;101294.81;6186784;23;20016;-81
2022/10/26 09:30:17;;;;;;;7.82;2.90;;;;;;;20.36;65.57;101310.88;6185838;23;20032;-81
2022/10/26 09:32:48;;;;;;;7.57;2.80;;;;;;;20.47;64.56;101321.34;6186975;23;20016;-81
2022/10/26 09:35:29;;;;;;;9.90;2.97;;;;;;;20.53;64.38;101317.69;6187530;23;20001;-82
2022/10/26 09:38:03;;;;;;;4.95;2.58;;;;;;;20.61;64.05;101327.34;6187558;23;20009;-81
2022/10/26 09:40:37;;;;;;;7.97;2.92;;;;;;;20.73;63.91;101337.81;6188533;23;20540;-81
2022/10/26 09:43:19;;;;;;;8.07;2.85;;;;;;;20.92;64.03;101340.03;6187530;23;20411;-81
2022/10/26 09:45:47;;;;;;;;;;;;;;;20.98;65.28;101331.81;6187770;23;20025;-81
2022/10/26 09:48:24;;;;;;;9.73;2.92;;;;;;;21.09;64.07;101339.63;6187337;23;19904;-83
2022/10/26 09:50:51;;;;;;;10.00;2.88;;;;;;;20.96;63.29;101337.25;6187352;23;20009;-82
2022/10/26 09:53:17;;;;;;;6.80;2.90;;;;;;;20.68;63.19;101353.13;6187032;23;20009;-82
2022/10/26 09:55:45;;;;;;;6.57;3.10;;;;;;;20.34;65.04;101341.34;6188040;23;20052;-82
2022/10/26 09:58:22;;;;;;;7.22;2.95;;;;;;;20.27;65.29;101341.47;6186581;23;20008;-82
2022/10/26 10:00:49;;;;;;;6.70;2.95;;;;;;;20.31;65.12;101341.41;6187049;23;20011;-82
2022/10/26 10:03:33;;;;;;;9.10;3.08;;;;;;;20.53;65.29;101340.06;6186891;23;20446;-82
2022/10/26 10:06:14;;;;;;;6.90;2.78;;;;;;;20.83;64.95;101357.25;6187181;23;20005;-82
2022/10/26 10:08:40;;;;;;;9.73;2.90;;;;;;;20.88;63.96;101355.34;6186863;23;20001;-82
2022/10/26 10:11:12;;;;;;;8.55;2.95;;;;;;;20.93;63.23;101353.44;6187047;23;20001;-82
2022/10/26 10:13:40;;;;;;;7.93;2.80;;;;;;;21.19;62.40;101366.22;6160373;23;20028;-82
2022/10/26 10:16:09;;;;;;;8.70;2.90;;;;;;;21.44;61.92;101369.22;6186685;23;20439;-82
2022/10/26 10:18:35;;;;;;;12.02;3.10;;;;;;;21.63;62.30;101368.75;6185075;23;20005;-82
2022/10/26 10:21:01;;;;;;;8.55;2.72;;;;;;;21.82;61.57;101372.69;6160505;23;20103;-82
2022/10/26 10:23:32;;;;;;;7.63;2.70;;;;;;;21.99;60.73;101377.59;6160780;23;20328;-82
2022/10/26 10:26:12;;;;;;;6.25;2.67;;;;;;;21.72;61.07;101385.53;6186511;23;20008;-82
2022/10/26 10:28:40;;;;;;;13.63;3.25;;;;;;;21.67;61.69;101390.16;6187038;23;20013;-82
2022/10/26 10:31:21;;;;;;;8.38;3.05;;;;;;;21.74;61.73;101404.28;6186563;23;20036;-82
2022/10/26 10:33:48;;;;;;;10.13;3.17;;;;;;;21.86;61.11;101401.28;6190817;23;20013;-81
2022/10/26 10:36:20;;;;;;;6.50;2.90;;;;;;;22.12;60.57;101402.38;6187595;23;20009;-82
2022/10/26 10:38:48;;;;;;;6.55;2.85;;;;;;;22.23;60.63;101393.09;6187131;23;20059;-82
2022/10/26 10:41:35;;;;;;;10.65;2.88;;;;;;;22.29;60.90;101412.69;6186733;23;20001;-82
2022/10/26 10:44:30;;;;;;;6.25;2.80;;;;;;;22.23;61.57;101417.34;6186536;23;20440;-82
2022/10/26 10:47:06;;;;;;;7.00;2.90;;;;;;;22.42;60.69;101416.78;6187502;23;19997;-82
2022/10/26 10:49:32;;;;;;;6.50;2.80;;;;;;;22.64;59.46;101422.41;6186042;23;20001;-82
2022/10/26 10:51:58;;;;;;;5.78;2.70;;;;;;;22.81;59.68;101428.19;6185725;23;20108;-82
2022/10/26 10:54:34;;;;;;;7.88;3.17;;;;;;;22.87;58.65;101416.31;6186192;23;20009;-82
2022/10/26 10:57:20;;;;;;;9.25;3.00;;;;;;;23.00;59.54;101412.38;6186840;23;20016;-81
2022/10/26 11:00:04;;;;;;;6.68;3.20;;;;;;;23.28;58.70;101431.22;6185056;23;20005;-82
2022/10/26 11:02:57;;;;;;;7.88;3.10;;;;;;;23.21;57.81;101425.16;6186062;23;20016;-82
2022/10/26 11:05:41;;;;;;;6.60;2.75;;;;;;;23.05;57.41;101429.28;6186259;23;20320;-82
2022/10/26 11:08:08;;;;;;;8.07;2.83;;;;;;;22.68;58.04;101446.53;6186295;23;20009;-82
2022/10/26 11:10:43;;;;;;;9.50;3.15;;;;;;;22.41;59.91;101441.97;6184718;23;20435;-82
2022/10/26 11:13:34;;;;;;;7.63;2.90;;;;;;;22.33;60.69;101447.56;6186283;23;20469;-82
2022/10/26 11:16:04;;;;;;;10.77;3.00;;;;;;;22.35;60.29;101443.00;6185310;23;20336;-83
2022/10/26 11:18:35;;;;;;;9.27;2.90;;;;;;;22.48;60.31;101446.22;6186217;23;20040;-83
2022/10/26 11:21:13;;;;;;;10.13;2.90;;;;;;;22.62;60.43;101445.84;6186974;23;20052;-80
2022/10/26 11:24:09;;;;;;;5.32;2.50;;;;;;;22.85;58.96;101454.09;6186218;23;20036;-80
2022/10/26 11:27:02;;;;;;;5.03;2.60;;;;;;;22.91;59.43;101455.75;6176416;23;20431;-81
2022/10/26 11:29:28;;;;;;;8.70;2.60;;;;;;;23.15;58.38;101463.09;6185883;23;20009;-82
2022/10/26 11:32:02;;;;;;;8.13;2.88;;;;;;;23.43;57.61;101470.31;6185911;23;20518;-82
2022/10/26 11:34:40;;;;;;;7.53;2.85;;;;;;;23.46;58.78;101475.56;6187112;23;20028;-81
2022/10/26 11:37:30;;;;;;;5.68;2.30;;;;;;;23.43;58.07;101473.00;6186118;23;20005;-81
2022/10/26 11:40:15;;;;;;;7.03;2.47;;;;;;;23.54;58.26;101469.94;6186912;23;20013;-82
2022/10/26 11:42:46;;;;;;;7.70;2.50;;;;;;;23.49;56.01;101472.78;6185734;23;20080;-82